sensor_id;sensor_type;location;lat;lon;timestamp;P1;durP1;ratioP1;P2;durP2;ratioP2
63621;SDS011;49770;47.544;19.074;2023-07-13T04:16:55;7.28;;;4.50;;
63621;SDS011;49770;47.544;19.074;2023-07-13T04:19:58;7.15;;;4.25;;
63621;SDS011;49770;47.544;19.074;2023-07-13T04:23:01;7.82;;;4.00;;
63621;SDS011;49770;47.544;19.074;2023-07-13T04:26:04;5.18;;;4.00;;
63621;SDS011;49770;47.544;19.074;2023-07-13T04:29:08;5.30;;;4.55;;
63621;SDS011;49770;47.544;19.074;2023-07-13T04:32:11;4.30;;;3.75;;
63621;SDS011;49770;47.544;19.074;2023-07-13T04:35:13;6.50;;;4.07;;
63621;SDS011;49770;47.544;19.074;2023-07-13T04:38:16;6.18;;;3.67;;
63621;SDS011;49770;47.544;19.074;2023-07-13T04:41:20;5.75;;;3.62;;
63621;SDS011;49770;47.544;19.074;2023-07-13T04:44:24;5.28;;;3.50;;
63621;SDS011;49770;47.544;19.074;2023-07-13T04:47:26;4.22;;;3.60;;
63621;SDS011;49770;47.544;19.074;2023-07-13T04:50:32;8.07;;;3.90;;
63621;SDS011;49770;47.544;19.074;2023-07-13T04:53:38;7.28;;;4.03;;
63621;SDS011;49770;47.544;19.074;2023-07-13T04:56:41;5.62;;;4.28;;
63621;SDS011;49770;47.544;19.074;2023-07-13T04:59:44;9.23;;;3.90;;
63621;SDS011;49770;47.544;19.074;2023-07-13T05:02:47;6.22;;;3.90;;
63621;SDS011;49770;47.544;19.074;2023-07-13T05:09:21;8.20;;;3.95;;
63621;SDS011;49770;47.544;19.074;2023-07-13T05:12:24;5.18;;;3.97;;
63621;SDS011;49770;47.544;19.074;2023-07-13T05:15:27;8.57;;;3.70;;
63621;SDS011;49770;47.544;19.074;2023-07-13T05:18:30;9.90;;;3.80;;
63621;SDS011;49770;47.544;19.074;2023-07-13T05:21:33;11.85;;;4.43;;
63621;SDS011;49770;47.544;19.074;2023-07-13T05:24:36;9.40;;;4.07;;
63621;SDS011;49770;47.544;19.074;2023-07-13T05:27:39;8.85;;;4.03;;
63621;SDS011;49770;47.544;19.074;2023-07-13T05:30:46;9.80;;;3.97;;
63621;SDS011;49770;47.544;19.074;2023-07-13T05:33:49;5.78;;;3.50;;
63621;SDS011;49770;47.544;19.074;2023-07-13T05:36:53;9.38;;;4.22;;
63621;SDS011;49770;47.544;19.074;2023-07-13T05:39:56;3.50;;;3.15;;
63621;SDS011;49770;47.544;19.074;2023-07-13T05:42:58;3.75;;;3.25;;
63621;SDS011;49770;47.544;19.074;2023-07-13T05:46:02;6.05;;;3.70;;
63621;SDS011;49770;47.544;19.074;2023-07-13T05:49:05;3.53;;;3.03;;
63621;SDS011;49770;47.544;19.074;2023-07-13T05:52:08;4.80;;;3.22;;
63621;SDS011;49770;47.544;19.074;2023-07-13T05:55:11;4.50;;;2.83;;
63621;SDS011;49770;47.544;19.074;2023-07-13T05:58:14;4.25;;;2.67;;
63621;SDS011;49770;47.544;19.074;2023-07-13T06:01:16;11.10;;;3.12;;
63621;SDS011;49770;47.544;19.074;2023-07-13T06:04:20;7.25;;;3.60;;
63621;SDS011;49770;47.544;19.074;2023-07-13T06:07:23;4.47;;;3.28;;
63621;SDS011;49770;47.544;19.074;2023-07-13T06:10:25;5.07;;;3.60;;
63621;SDS011;49770;47.544;19.074;2023-07-13T06:13:28;8.00;;;3.70;;
63621;SDS011;49770;47.544;19.074;2023-07-13T06:16:31;8.50;;;4.45;;
63621;SDS011;49770;47.544;19.074;2023-07-13T06:19:34;4.32;;;3.55;;
63621;SDS011;49770;47.544;19.074;2023-07-13T06:22:37;6.72;;;3.72;;
63621;SDS011;49770;47.544;19.074;2023-07-13T06:25:40;5.50;;;3.58;;
63621;SDS011;49770;47.544;19.074;2023-07-13T06:28:43;4.00;;;3.25;;
63621;SDS011;49770;47.544;19.074;2023-07-13T06:31:46;3.95;;;3.00;;
63621;SDS011;49770;47.544;19.074;2023-07-13T06:34:49;3.20;;;2.90;;
63621;SDS011;49770;47.544;19.074;2023-07-13T06:37:54;4.20;;;2.78;;
63621;SDS011;49770;47.544;19.074;2023-07-13T06:40:57;7.25;;;3.30;;
63621;SDS011;49770;47.544;19.074;2023-07-13T06:44:00;2.90;;;2.33;;
63621;SDS011;49770;47.544;19.074;2023-07-13T06:47:03;4.15;;;2.70;;
63621;SDS011;49770;47.544;19.074;2023-07-13T06:50:06;4.05;;;2.70;;
63621;SDS011;49770;47.544;19.074;2023-07-13T06:53:09;2.97;;;2.70;;
63621;SDS011;49770;47.544;19.074;2023-07-13T06:56:12;4.18;;;2.78;;
63621;SDS011;49770;47.544;19.074;2023-07-13T06:59:15;2.55;;;2.35;;
63621;SDS011;49770;47.544;19.074;2023-07-13T07:02:18;4.62;;;2.97;;
63621;SDS011;49770;47.544;19.074;2023-07-13T07:05:24;7.12;;;2.60;;
63621;SDS011;49770;47.544;19.074;2023-07-13T07:08:26;3.58;;;2.45;;
63621;SDS011;49770;47.544;19.074;2023-07-13T07:11:29;3.08;;;2.50;;
63621;SDS011;49770;47.544;19.074;2023-07-13T07:14:32;3.53;;;2.53;;
63621;SDS011;49770;47.544;19.074;2023-07-13T07:17:36;6.55;;;2.87;;
63621;SDS011;49770;47.544;19.074;2023-07-13T07:20:39;2.65;;;2.45;;
63621;SDS011;49770;47.544;19.074;2023-07-13T07:23:42;4.20;;;2.50;;
63621;SDS011;49770;47.544;19.074;2023-07-13T07:26:45;4.57;;;3.08;;
63621;SDS011;49770;47.544;19.074;2023-07-13T07:29:51;4.25;;;2.45;;
63621;SDS011;49770;47.544;19.074;2023-07-13T07:33:14;3.62;;;2.70;;
63621;SDS011;49770;47.544;19.074;2023-07-13T07:36:17;3.45;;;2.90;;
63621;SDS011;49770;47.544;19.074;2023-07-13T07:39:23;4.10;;;2.92;;
63621;SDS011;49770;47.544;19.074;2023-07-13T07:42:25;5.05;;;2.87;;
63621;SDS011;49770;47.544;19.074;2023-07-13T07:45:28;4.72;;;3.08;;
63621;SDS011;49770;47.544;19.074;2023-07-13T07:48:31;3.58;;;3.10;;
63621;SDS011;49770;47.544;19.074;2023-07-13T07:51:34;6.05;;;3.10;;
63621;SDS011;49770;47.544;19.074;2023-07-13T07:54:37;3.35;;;2.80;;
63621;SDS011;49770;47.544;19.074;2023-07-13T07:57:42;3.62;;;2.72;;
63621;SDS011;49770;47.544;19.074;2023-07-13T08:00:48;3.12;;;2.70;;
63621;SDS011;49770;47.544;19.074;2023-07-13T08:03:54;2.83;;;2.50;;
63621;SDS011;49770;47.544;19.074;2023-07-13T08:06:59;4.07;;;2.75;;
63621;SDS011;49770;47.544;19.074;2023-07-13T08:10:08;3.60;;;2.50;;
63621;SDS011;49770;47.544;19.074;2023-07-13T08:13:11;3.60;;;2.83;;
63621;SDS011;49770;47.544;19.074;2023-07-13T08:16:14;4.45;;;2.55;;
63621;SDS011;49770;47.544;19.074;2023-07-13T08:19:16;3.87;;;2.92;;
63621;SDS011;49770;47.544;19.074;2023-07-13T08:22:19;4.20;;;3.15;;
63621;SDS011;49770;47.544;19.074;2023-07-13T08:25:22;4.60;;;3.03;;
63621;SDS011;49770;47.544;19.074;2023-07-13T08:28:25;4.62;;;2.83;;
63621;SDS011;49770;47.544;19.074;2023-07-13T08:31:28;5.50;;;3.20;;
63621;SDS011;49770;47.544;19.074;2023-07-13T08:34:31;4.30;;;3.20;;
63621;SDS011;49770;47.544;19.074;2023-07-13T08:37:34;5.68;;;3.03;;
63621;SDS011;49770;47.544;19.074;2023-07-13T08:40:36;5.40;;;3.08;;
63621;SDS011;49770;47.544;19.074;2023-07-13T08:43:41;5.30;;;2.97;;
63621;SDS011;49770;47.544;19.074;2023-07-13T08:46:49;3.42;;;3.10;;
63621;SDS011;49770;47.544;19.074;2023-07-13T08:49:53;6.78;;;3.00;;
63621;SDS011;49770;47.544;19.074;2023-07-13T08:52:59;4.22;;;3.17;;
63621;SDS011;49770;47.544;19.074;2023-07-13T08:56:05;4.87;;;2.90;;
63621;SDS011;49770;47.544;19.074;2023-07-13T08:59:16;3.33;;;3.05;;
63621;SDS011;49770;47.544;19.074;2023-07-13T09:05:45;6.53;;;3.50;;
63621;SDS011;49770;47.544;19.074;2023-07-13T09:09:00;4.60;;;3.53;;
63621;SDS011;49770;47.544;19.074;2023-07-13T09:15:46;5.72;;;3.45;;
63621;SDS011;49770;47.544;19.074;2023-07-13T09:18:52;3.42;;;2.90;;
63621;SDS011;49770;47.544;19.074;2023-07-13T09:21:58;5.68;;;3.20;;
63621;SDS011;49770;47.544;19.074;2023-07-13T09:28:38;3.80;;;3.28;;
63621;SDS011;49770;47.544;19.074;2023-07-13T09:31:45;3.40;;;3.10;;
63621;SDS011;49770;47.544;19.074;2023-07-13T09:34:52;5.20;;;3.60;;
63621;SDS011;49770;47.544;19.074;2023-07-13T09:37:57;3.55;;;3.25;;
63621;SDS011;49770;47.544;19.074;2023-07-13T09:41:23;4.70;;;3.53;;
63621;SDS011;49770;47.544;19.074;2023-07-13T09:44:34;4.70;;;3.85;;
63621;SDS011;49770;47.544;19.074;2023-07-13T09:47:39;5.00;;;3.40;;
63621;SDS011;49770;47.544;19.074;2023-07-13T09:50:43;6.95;;;3.40;;
63621;SDS011;49770;47.544;19.074;2023-07-13T09:53:46;3.95;;;3.42;;
63621;SDS011;49770;47.544;19.074;2023-07-13T09:56:58;5.18;;;3.45;;
63621;SDS011;49770;47.544;19.074;2023-07-13T10:00:05;5.12;;;3.50;;
63621;SDS011;49770;47.544;19.074;2023-07-13T10:03:24;5.95;;;3.58;;
63621;SDS011;49770;47.544;19.074;2023-07-13T10:06:33;4.07;;;3.60;;
63621;SDS011;49770;47.544;19.074;2023-07-13T10:09:36;6.47;;;3.75;;
63621;SDS011;49770;47.544;19.074;2023-07-13T10:12:38;4.87;;;3.58;;
63621;SDS011;49770;47.544;19.074;2023-07-13T10:15:41;5.15;;;3.60;;
63621;SDS011;49770;47.544;19.074;2023-07-13T10:23:15;5.78;;;3.30;;
63621;SDS011;49770;47.544;19.074;2023-07-13T10:25:54;7.12;;;3.35;;
63621;SDS011;49770;47.544;19.074;2023-07-13T10:29:01;4.18;;;3.15;;
63621;SDS011;49770;47.544;19.074;2023-07-13T10:32:09;3.47;;;3.17;;
63621;SDS011;49770;47.544;19.074;2023-07-13T10:35:16;3.75;;;3.22;;
63621;SDS011;49770;47.544;19.074;2023-07-13T10:38:23;4.22;;;3.08;;
63621;SDS011;49770;47.544;19.074;2023-07-13T10:41:27;3.95;;;2.95;;
63621;SDS011;49770;47.544;19.074;2023-07-13T10:44:33;4.53;;;3.12;;
63621;SDS011;49770;47.544;19.074;2023-07-13T10:47:37;4.90;;;2.80;;
63621;SDS011;49770;47.544;19.074;2023-07-13T10:50:44;4.30;;;3.20;;
63621;SDS011;49770;47.544;19.074;2023-07-13T10:57:22;4.37;;;2.97;;
63621;SDS011;49770;47.544;19.074;2023-07-13T11:00:25;5.70;;;3.20;;
63621;SDS011;49770;47.544;19.074;2023-07-13T11:03:28;4.53;;;2.80;;
63621;SDS011;49770;47.544;19.074;2023-07-13T11:06:41;4.72;;;3.40;;
63621;SDS011;49770;47.544;19.074;2023-07-13T11:09:52;5.15;;;2.90;;
63621;SDS011;49770;47.544;19.074;2023-07-13T11:12:56;7.28;;;3.03;;
63621;SDS011;49770;47.544;19.074;2023-07-13T11:15:59;3.92;;;2.78;;
63621;SDS011;49770;47.544;19.074;2023-07-13T11:28:23;4.32;;;3.15;;
63621;SDS011;49770;47.544;19.074;2023-07-13T11:31:28;4.60;;;2.72;;
63621;SDS011;49770;47.544;19.074;2023-07-13T11:34:36;3.10;;;2.70;;
63621;SDS011;49770;47.544;19.074;2023-07-13T11:37:41;2.60;;;2.40;;
63621;SDS011;49770;47.544;19.074;2023-07-13T11:40:44;3.65;;;2.78;;
63621;SDS011;49770;47.544;19.074;2023-07-13T11:44:13;3.72;;;2.53;;
63621;SDS011;49770;47.544;19.074;2023-07-13T11:47:20;4.22;;;2.45;;
63621;SDS011;49770;47.544;19.074;2023-07-13T11:50:25;4.55;;;2.90;;
63621;SDS011;49770;47.544;19.074;2023-07-13T11:53:28;3.35;;;2.60;;
63621;SDS011;49770;47.544;19.074;2023-07-13T11:56:33;3.15;;;2.50;;
63621;SDS011;49770;47.544;19.074;2023-07-13T11:59:38;2.87;;;2.60;;
63621;SDS011;49770;47.544;19.074;2023-07-13T12:02:43;3.30;;;3.00;;
63621;SDS011;49770;47.544;19.074;2023-07-13T12:06:02;4.22;;;2.78;;
63621;SDS011;49770;47.544;19.074;2023-07-13T12:09:27;3.72;;;3.10;;
63621;SDS011;49770;47.544;19.074;2023-07-13T12:12:30;3.28;;;2.97;;
63621;SDS011;49770;47.544;19.074;2023-07-13T12:15:37;3.37;;;2.70;;
63621;SDS011;49770;47.544;19.074;2023-07-13T12:18:41;3.00;;;2.78;;
63621;SDS011;49770;47.544;19.074;2023-07-13T12:21:48;4.68;;;3.40;;
63621;SDS011;49770;47.544;19.074;2023-07-13T12:24:53;3.40;;;3.10;;
63621;SDS011;49770;47.544;19.074;2023-07-13T12:27:58;4.12;;;2.85;;
63621;SDS011;49770;47.544;19.074;2023-07-13T12:31:01;3.75;;;3.00;;
63621;SDS011;49770;47.544;19.074;2023-07-13T12:34:07;3.95;;;3.20;;
63621;SDS011;49770;47.544;19.074;2023-07-13T12:37:15;4.53;;;3.33;;
63621;SDS011;49770;47.544;19.074;2023-07-13T12:40:20;3.40;;;3.15;;
63621;SDS011;49770;47.544;19.074;2023-07-13T12:43:25;4.43;;;3.62;;
63621;SDS011;49770;47.544;19.074;2023-07-13T12:46:29;3.58;;;3.28;;
63621;SDS011;49770;47.544;19.074;2023-07-13T12:49:33;5.82;;;3.17;;
63621;SDS011;49770;47.544;19.074;2023-07-13T12:52:39;3.92;;;3.40;;
63621;SDS011;49770;47.544;19.074;2023-07-13T12:55:50;3.75;;;3.45;;
63621;SDS011;49770;47.544;19.074;2023-07-13T12:59:01;4.90;;;3.15;;
63621;SDS011;49770;47.544;19.074;2023-07-13T13:02:17;8.95;;;3.67;;
63621;SDS011;49770;47.544;19.074;2023-07-13T13:05:34;5.12;;;3.15;;
63621;SDS011;49770;47.544;19.074;2023-07-13T13:08:37;3.20;;;2.90;;
63621;SDS011;49770;47.544;19.074;2023-07-13T13:11:40;3.83;;;3.10;;
63621;SDS011;49770;47.544;19.074;2023-07-13T13:14:43;3.42;;;3.10;;
63621;SDS011;49770;47.544;19.074;2023-07-13T13:17:46;4.15;;;3.20;;
63621;SDS011;49770;47.544;19.074;2023-07-13T13:20:50;5.03;;;3.08;;
63621;SDS011;49770;47.544;19.074;2023-07-13T13:23:54;5.22;;;3.05;;
63621;SDS011;49770;47.544;19.074;2023-07-13T13:26:57;3.75;;;3.28;;
63621;SDS011;49770;47.544;19.074;2023-07-13T13:30:00;3.05;;;2.85;;
63621;SDS011;49770;47.544;19.074;2023-07-13T13:33:04;6.32;;;3.03;;
63621;SDS011;49770;47.544;19.074;2023-07-13T13:36:18;6.30;;;3.22;;
63621;SDS011;49770;47.544;19.074;2023-07-13T13:39:23;5.60;;;3.30;;
63621;SDS011;49770;47.544;19.074;2023-07-13T13:42:30;5.00;;;3.35;;
63621;SDS011;49770;47.544;19.074;2023-07-13T13:45:33;4.45;;;3.47;;
63621;SDS011;49770;47.544;19.074;2023-07-13T13:48:35;3.72;;;3.42;;
63621;SDS011;49770;47.544;19.074;2023-07-13T13:51:41;4.93;;;3.40;;
63621;SDS011;49770;47.544;19.074;2023-07-13T13:54:44;3.80;;;3.20;;
63621;SDS011;49770;47.544;19.074;2023-07-13T13:57:47;4.60;;;3.12;;
63621;SDS011;49770;47.544;19.074;2023-07-13T14:00:50;3.92;;;3.50;;
63621;SDS011;49770;47.544;19.074;2023-07-13T14:03:54;3.65;;;3.35;;
63621;SDS011;49770;47.544;19.074;2023-07-13T14:06:58;6.18;;;3.08;;
63621;SDS011;49770;47.544;19.074;2023-07-13T14:10:01;5.07;;;3.42;;
63621;SDS011;49770;47.544;19.074;2023-07-13T14:13:03;3.65;;;3.22;;
63621;SDS011;49770;47.544;19.074;2023-07-13T14:16:12;3.60;;;3.30;;
63621;SDS011;49770;47.544;19.074;2023-07-13T14:19:19;5.03;;;3.10;;
63621;SDS011;49770;47.544;19.074;2023-07-13T14:22:24;4.68;;;3.00;;
63621;SDS011;49770;47.544;19.074;2023-07-13T14:25:27;5.40;;;3.40;;
63621;SDS011;49770;47.544;19.074;2023-07-13T14:28:31;4.22;;;3.37;;
63621;SDS011;49770;47.544;19.074;2023-07-13T14:31:34;3.50;;;3.20;;
63621;SDS011;49770;47.544;19.074;2023-07-13T14:34:37;5.30;;;3.53;;
63621;SDS011;49770;47.544;19.074;2023-07-13T14:37:44;5.97;;;3.37;;
63621;SDS011;49770;47.544;19.074;2023-07-13T14:40:49;4.03;;;3.50;;
63621;SDS011;49770;47.544;19.074;2023-07-13T14:43:52;3.62;;;3.22;;
63621;SDS011;49770;47.544;19.074;2023-07-13T14:46:57;5.15;;;3.25;;
63621;SDS011;49770;47.544;19.074;2023-07-13T14:50:01;3.75;;;3.00;;
63621;SDS011;49770;47.544;19.074;2023-07-13T14:53:10;3.37;;;3.08;;
63621;SDS011;49770;47.544;19.074;2023-07-13T14:56:14;4.53;;;3.15;;
63621;SDS011;49770;47.544;19.074;2023-07-13T14:59:19;3.30;;;2.97;;
63621;SDS011;49770;47.544;19.074;2023-07-13T15:02:29;3.37;;;3.08;;
63621;SDS011;49770;47.544;19.074;2023-07-13T15:05:37;4.97;;;3.22;;
63621;SDS011;49770;47.544;19.074;2023-07-13T15:08:42;5.65;;;3.20;;
63621;SDS011;49770;47.544;19.074;2023-07-13T15:11:45;4.30;;;3.35;;
63621;SDS011;49770;47.544;19.074;2023-07-13T15:14:48;3.47;;;2.95;;
63621;SDS011;49770;47.544;19.074;2023-07-13T15:17:50;3.33;;;3.05;;
63621;SDS011;49770;47.544;19.074;2023-07-13T15:20:53;3.20;;;2.90;;
63621;SDS011;49770;47.544;19.074;2023-07-13T15:23:58;3.42;;;3.10;;
